Terminal Aerodrome Forecast
Issued by NWS Riverton, WY

Home | Current Version | Previous Version | Text Only | Print | Product List | Glossary On
Versions: 1 2 3 4 5 6 7 8 9 10 11 12 13 14 15
751
FTUS45 KRIW 301855 AAB
TAFRIW
TAF AMD
KRIW 301855Z 3019/3118 33010G15KT P6SM VCTS SCT060CB BKN100
      TEMPO 3019/3020 VRB15G25KT -TSRA BKN060CB
     FM310000 01015G25KT P6SM VCSH SCT050 BKN100
     FM310300 01014G20KT P6SM BKN060
     FM310600 02009KT P6SM BKN045
     FM311500 03008KT P6SM FEW060=

USA.gov is the U.S. government's official web portal to all federal, state and local government web resources and services.